Decoded Metar for WBGS (SIBU in MALAYSIA) (IATA:SBW) | Meteo·Mobile Aviation Weather
aviador You're here:

WBGS Decoded Metar

SIBU in MALAYSIA
Report Time2018-10-23 11:00:00
UTC Time2018-10-23 11:51:07
Flight Rules vfr VFR
WindVRB at 03 kt
Visibility9999 m
Phenomena:N/A
Clouds:Few 018 Hf
Scattered 150 Hf
Broken 300 Hf
Expected CloudBase > 2,000 ft AGL from Temp-Dew spread
Ceiling30,000 ft
Temp30°C (ISA +15)
Dew Point25°C (75% RH)
Heat Index36.3°C
QNH1008 hPa
Density Alt2,333 ft
Elevation26 ft
Report Wrong Elevation
Raw Report
METAR WBGS 231100Z VRB03KT 9999 FEW018 SCT150 BKN300 30/25 Q1008=

Extra information for WBGS:More info

Metar Taf Metar & Taf Last 4 Metars F.Rules Stats Wind Profile Meteogram Temp Stats Airport Information Weather charts Add Link Nearby VenuesMetar ALERT Operation Metar Decoded Social comments